CheckWX is a tool to help pilots better visualize weather data.  It is not intended as a substitute for an official pre-flight weather briefing.

21:22:21 UTC

KCMA METAR
Camarillo Airport
Camarillo, California, USA
Current

27 mins ago

KCMA 192055Z 23009KT 10SM CLR 24/15 A2985 RMK AO2 SLP116 T02390150 58012
Observed
Sep-19 @ 20:55 UTC
Wind
  • 230° at 9 KTS
Visibility
10 SM
Flight Rules
VFR
Cloud Levels
  • Clear skies
Temperature
24°C / 75°F
Dewpoint
15°C / 59°F
Humidity
57%
Altimeter
29.85" Hg
Pressure
1010.82 hPa
Previous

1 hour ago

KCMA 191955Z 25012KT 10SM SCT024 24/15 A2987 RMK AO2 SLP121 T02390150
Observed
Sep-19 @ 19:55 UTC
Wind
  • 250° at 12 KTS
Visibility
10 SM
Flight Rules
VFR
Cloud Levels
  • Scattered at 2,400' AGL
Temperature
24°C / 75°F
Dewpoint
15°C / 59°F
Humidity
57%
Altimeter
29.87" Hg
Pressure
1011.52 hPa
Previous

2 hours ago

KCMA 191855Z 20009KT 10SM FEW026 24/15 A2988 RMK AO2 SLP125 T02390150
Observed
Sep-19 @ 18:55 UTC
Wind
  • 200° at 9 KTS
Visibility
10 SM
Flight Rules
VFR
Cloud Levels
  • Few at 2,600' AGL
Temperature
24°C / 75°F
Dewpoint
15°C / 59°F
Humidity
57%
Altimeter
29.88" Hg
Pressure
1011.82 hPa